Time;durP1;ratioP1;P1;durP2;ratioP2;P2;SDS_P1;SDS_P2;PMS_P1;PMS_P2;Temp;Humidity;BMP_temperature;BMP_pressure;BME280_temperature;BME280_humidity;BME280_pressure;Samples;Min_cycle;Max_cycle;Signal;HPM_P1;HPM_P2
2022/10/01 00:02:24;;;;;;;12.90;7.80;;;;;;;28.99;70.72;100862.69;5018856;28;66853;-40
2022/10/01 00:04:57;;;;;;;8.55;7.57;;;;;;;29.04;70.60;100867.50;5018218;28;71498;-40
2022/10/01 00:07:29;;;;;;;9.88;8.60;;;;;;;29.10;71.10;100877.47;5019879;28;66930;-40
2022/10/01 00:10:02;;;;;;;13.90;8.98;;;;;;;29.15;71.63;100873.09;5021458;28;70792;-40
2022/10/01 00:12:34;;;;;;;10.23;9.18;;;;;;;29.10;71.80;100867.50;5018741;28;67175;-41
2022/10/01 00:15:08;;;;;;;11.73;9.57;;;;;;;29.13;73.37;100868.94;5013684;28;70672;-40
2022/10/01 00:17:43;;;;;;;10.00;9.18;;;;;;;29.25;72.29;100878.06;5021305;28;66928;-40
2022/10/01 00:20:15;;;;;;;8.77;8.27;;;;;;;29.28;73.03;100872.28;5021116;28;70306;-43
2022/10/01 00:22:48;;;;;;;12.70;9.48;;;;;;;29.31;74.06;100888.06;5021820;28;67202;-40
2022/10/01 00:25:24;;;;;;;9.73;8.82;;;;;;;29.33;74.07;100888.66;5017463;28;70974;-40
2022/10/01 00:27:56;;;;;;;9.70;8.52;;;;;;;29.38;73.40;100888.88;5013077;28;66394;-38
2022/10/01 00:30:29;;;;;;;10.27;9.35;;;;;;;29.42;74.98;100889.31;5019484;28;70514;-39
2022/10/01 00:33:02;;;;;;;8.93;7.95;;;;;;;29.49;73.73;100908.19;5015102;28;66762;-40
2022/10/01 00:35:35;;;;;;;13.93;8.23;;;;;;;29.44;74.36;100897.19;5009886;28;71045;-40
2022/10/01 00:38:08;;;;;;;11.90;9.10;;;;;;;29.48;75.71;100898.44;5014137;28;66876;-39
2022/10/01 00:40:40;;;;;;;10.82;8.00;;;;;;;29.47;75.73;100903.00;5017815;28;70319;-39
2022/10/01 00:43:21;;;;;;;8.75;7.97;;;;;;;29.58;75.36;100915.03;5018839;28;66538;-40
2022/10/01 00:45:58;;;;;;;19.77;15.25;;;;;;;29.56;76.08;100926.06;5009930;28;70867;-40
2022/10/01 00:48:36;;;;;;;41.05;30.15;;;;;;;29.56;76.02;100906.28;5004544;28;66180;-40
2022/10/01 00:51:09;;;;;;;59.55;39.25;;;;;;;29.59;76.34;100927.53;5015086;28;72485;-40
2022/10/01 00:53:45;;;;;;;68.53;48.10;;;;;;;29.65;75.24;100915.91;5015294;28;66646;-40
2022/10/01 00:56:18;;;;;;;64.10;44.38;;;;;;;29.49;75.32;100905.50;5009732;28;70712;-40
2022/10/01 00:58:54;;;;;;;57.28;43.78;;;;;;;29.74;72.52;100914.63;5003268;28;66229;-41
2022/10/01 01:01:27;;;;;;;51.35;40.42;;;;;;;29.72;72.07;100903.19;5018299;28;71165;-39
2022/10/01 01:04:00;;;;;;;49.72;40.67;;;;;;;29.83;71.34;100918.75;5018539;28;66206;-40
2022/10/01 01:06:32;;;;;;;52.42;39.05;;;;;;;29.85;71.24;100915.84;5015532;28;70991;-40
2022/10/01 01:09:05;;;;;;;48.08;35.55;;;;;;;29.92;71.50;100921.22;5019201;28;65108;-39
2022/10/01 01:12:05;;;;;;;48.10;36.22;;;;;;;29.92;70.92;100932.91;5016515;28;70677;-40
2022/10/01 01:14:50;;;;;;;44.10;34.58;;;;;;;29.43;71.42;100855.00;5018764;28;65525;-39
2022/10/01 01:17:34;;;;;;;41.42;30.80;;;;;;;29.98;71.21;100931.22;5015926;28;70607;-40
2022/10/01 01:20:12;;;;;;;35.38;28.80;;;;;;;29.98;71.57;100925.81;5013344;28;66426;-40
2022/10/01 01:23:05;;;;;;;40.38;28.88;;;;;;;28.98;74.55;100780.03;5013664;28;70774;-41
2022/10/01 01:25:46;;;;;;;38.63;28.08;;;;;;;29.53;75.10;100885.97;5018922;28;66323;-41
2022/10/01 01:28:33;;;;;;;25.52;22.02;;;;;;;29.77;76.09;100919.59;5016348;28;70069;-43
2022/10/01 01:31:10;;;;;;;24.35;20.25;;;;;;;29.73;76.50;100934.59;5020126;28;66267;-40
2022/10/01 01:33:48;;;;;;;21.95;19.75;;;;;;;29.25;76.70;100856.47;5016905;28;70832;-41
2022/10/01 01:36:31;;;;;;;20.08;17.27;;;;;;;29.62;77.11;100927.09;5019177;28;67122;-40
2022/10/01 01:39:07;;;;;;;18.95;16.00;;;;;;;29.72;76.60;100949.13;5012999;28;70177;-40
2022/10/01 01:41:48;;;;;;;17.15;14.50;;;;;;;29.73;76.97;100937.31;5013541;28;66696;-40
2022/10/01 01:44:26;;;;;;;14.45;13.25;;;;;;;29.21;77.08;100855.22;5011541;28;70888;-41
2022/10/01 01:47:01;;;;;;;12.68;11.68;;;;;;;29.69;76.60;100943.34;5006496;28;67148;-40
2022/10/01 01:49:34;;;;;;;13.27;10.82;;;;;;;29.72;76.71;100951.84;5014568;28;70697;-38
2022/10/01 01:52:14;;;;;;;11.48;10.13;;;;;;;29.71;77.25;100947.50;5017353;28;66320;-39
2022/10/01 01:54:48;;;;;;;11.27;10.23;;;;;;;29.24;77.10;100876.41;5019314;28;71096;-39
2022/10/01 01:57:22;;;;;;;9.98;9.15;;;;;;;29.70;77.42;100944.97;5016976;28;66752;-40
2022/10/01 01:59:54;;;;;;;27.55;18.50;;;;;;;29.77;77.23;100956.63;5006001;28;70830;-40
2022/10/01 02:02:32;;;;;;;93.40;61.55;;;;;;;29.76;77.11;100953.09;5016993;28;66906;-41
2022/10/01 02:05:09;;;;;;;132.48;89.88;;;;;;;28.91;76.93;100814.28;5014967;28;70489;-40
2022/10/01 02:08:12;;;;;;;123.13;85.30;;;;;;;29.75;77.91;100973.06;5012457;28;66363;-39
2022/10/01 02:11:03;;;;;;;136.82;91.97;;;;;;;29.50;77.42;100913.38;5008670;28;70754;-40
2022/10/01 02:14:08;;;;;;;118.38;78.25;;;;;;;29.83;77.32;100950.38;5011823;28;66548;-40
2022/10/01 02:17:15;;;;;;;129.02;83.30;;;;;;;29.73;77.82;100956.22;5015290;28;70766;-41
2022/10/01 02:19:55;;;;;;;140.10;98.32;;;;;;;29.93;77.62;100967.00;5006972;28;67103;-39
2022/10/01 02:22:48;;;;;;;125.22;86.75;;;;;;;29.44;76.77;100884.50;5018464;28;70741;-39
2022/10/01 02:25:25;;;;;;;122.55;81.35;;;;;;;29.98;76.24;100966.38;5011528;28;66856;-39
2022/10/01 02:28:03;;;;;;;96.38;60.28;;;;;;;30.00;75.53;100956.16;5015107;28;70942;-39
2022/10/01 02:30:38;;;;;;;75.07;46.83;;;;;;;29.60;74.51;100875.13;5007465;28;67316;-39
2022/10/01 02:33:14;;;;;;;68.13;41.03;;;;;;;30.13;74.44;100961.53;5003496;28;70229;-39
2022/10/01 02:35:50;;;;;;;66.50;40.92;;;;;;;30.14;74.89;100955.06;5010134;28;65826;-41
2022/10/01 02:38:25;;;;;;;66.05;38.38;;;;;;;29.79;73.66;100878.84;5008357;28;70717;-41
2022/10/01 02:41:03;;;;;;;63.60;34.47;;;;;;;29.49;73.44;100819.84;5022086;28;66766;-42
2022/10/01 02:43:51;;;;;;;42.47;25.65;;;;;;;30.34;73.37;100951.47;5015005;28;71239;-41
2022/10/01 02:46:38;;;;;;;41.47;26.15;;;;;;;30.31;73.00;100932.97;5016840;28;66866;-44
2022/10/01 02:49:14;;;;;;;52.50;31.77;;;;;;;30.51;72.96;100941.84;5017127;28;70137;-43
2022/10/01 02:52:09;;;;;;;53.97;34.22;;;;;;;30.45;73.48;100956.22;5018206;28;66538;-41
2022/10/01 02:54:47;;;;;;;50.25;33.65;;;;;;;30.60;72.31;100955.94;5017881;28;70166;-41
2022/10/01 02:57:23;;;;;;;53.78;34.70;;;;;;;30.64;72.43;100952.56;5019505;28;66721;-41
2022/10/01 03:00:02;;;;;;;62.55;35.58;;;;;;;30.67;72.63;100963.00;5021599;28;70204;-41
2022/10/01 03:02:34;;;;;;;52.78;33.65;;;;;;;30.57;72.26;100930.13;5018933;28;66576;-40
2022/10/01 03:05:07;;;;;;;41.80;29.98;;;;;;;30.76;71.88;100949.16;5022148;28;70856;-41
2022/10/01 03:07:40;;;;;;;49.42;29.10;;;;;;;30.78;71.74;100952.50;5001564;28;66990;-41
2022/10/01 03:10:14;;;;;;;44.88;28.80;;;;;;;30.83;71.81;100955.41;5020774;28;70436;-42
2022/10/01 03:12:47;;;;;;;42.95;27.05;;;;;;;30.83;71.86;100941.88;5019228;28;67452;-43
2022/10/01 03:15:20;;;;;;;40.35;27.23;;;;;;;30.84;71.56;100940.81;5022989;28;69588;-40
2022/10/01 03:17:53;;;;;;;37.08;25.98;;;;;;;30.86;71.63;100934.13;5018727;28;66694;-41
2022/10/01 03:20:25;;;;;;;35.35;23.80;;;;;;;30.92;71.81;100935.13;5022238;28;70447;-41
2022/10/01 03:22:58;;;;;;;33.50;22.88;;;;;;;30.94;71.65;100924.91;5019223;28;66544;-41
2022/10/01 03:25:30;;;;;;;29.10;20.02;;;;;;;30.95;71.57;100931.97;5021557;28;70674;-41
2022/10/01 03:28:02;;;;;;;31.42;20.50;;;;;;;30.92;71.82;100916.19;5021626;28;67120;-41
2022/10/01 03:30:35;;;;;;;27.88;19.25;;;;;;;30.99;71.26;100911.56;5018278;28;70972;-41
2022/10/01 03:33:08;;;;;;;25.70;18.60;;;;;;;31.00;71.66;100901.53;5004090;28;66770;-42
2022/10/01 03:35:40;;;;;;;29.98;18.35;;;;;;;31.00;71.61;100913.19;5018401;28;70734;-42
2022/10/01 03:38:13;;;;;;;22.35;15.38;;;;;;;31.03;71.55;100901.91;5019290;28;67273;-41
2022/10/01 03:40:46;;;;;;;19.77;14.95;;;;;;;31.04;71.82;100906.31;5013760;28;70578;-41
2022/10/01 03:43:18;;;;;;;21.63;15.32;;;;;;;31.06;71.44;100901.47;5003960;28;67025;-40
2022/10/01 03:45:50;;;;;;;22.98;13.98;;;;;;;30.90;72.00;100892.03;5013268;28;70754;-41
2022/10/01 03:48:23;;;;;;;19.00;13.18;;;;;;;30.80;72.61;100890.84;5015572;28;66702;-40
2022/10/01 03:50:58;;;;;;;30.98;12.85;;;;;;;30.38;73.12;100817.41;5014908;28;70860;-41
2022/10/01 03:53:31;;;;;;;37.60;16.27;;;;;;;30.65;74.17;100864.06;5006506;28;67049;-41
2022/10/01 03:56:04;;;;;;;56.78;19.92;;;;;;;30.63;74.21;100861.56;5011197;28;70440;-40
2022/10/01 03:58:36;;;;;;;64.75;22.67;;;;;;;30.55;74.54;100856.41;5015200;28;66812;-40
2022/10/01 04:01:09;;;;;;;61.08;22.90;;;;;;;30.58;74.63;100844.31;5013985;28;70222;-40
2022/10/01 04:03:42;;;;;;;51.95;22.33;;;;;;;30.55;75.35;100859.13;5018242;28;66216;-39
2022/10/01 04:06:15;;;;;;;65.75;22.60;;;;;;;30.50;76.01;100840.81;5002196;28;71350;-39
2022/10/01 04:08:48;;;;;;;52.90;20.55;;;;;;;30.59;74.89;100837.84;5012604;28;66937;-40
2022/10/01 04:11:20;;;;;;;40.90;17.88;;;;;;;30.57;76.38;100835.38;5016006;28;70481;-40
2022/10/01 04:13:53;;;;;;;34.65;16.17;;;;;;;30.53;76.00;100820.63;5016655;28;66828;-39
2022/10/01 04:16:25;;;;;;;34.30;14.57;;;;;;;30.59;76.52;100829.72;4997020;28;70162;-39
2022/10/01 04:18:58;;;;;;;29.20;13.93;;;;;;;30.57;76.29;100821.84;5006088;28;66812;-40
2022/10/01 04:21:30;;;;;;;31.30;15.25;;;;;;;30.57;76.17;100827.25;5015858;28;70817;-39
2022/10/01 04:24:04;;;;;;;27.17;13.40;;;;;;;30.55;76.28;100823.94;5016539;28;67053;-40
2022/10/01 04:26:36;;;;;;;27.73;13.52;;;;;;;30.55;76.83;100813.09;5013832;28;71872;-40
2022/10/01 04:29:09;;;;;;;29.55;13.95;;;;;;;30.54;76.57;100808.75;5008276;28;67059;-38
2022/10/01 04:31:42;;;;;;;23.35;12.75;;;;;;;30.63;75.66;100799.31;5003705;28;71198;-41
2022/10/01 04:34:15;;;;;;;23.95;12.95;;;;;;;30.63;76.16;100796.59;5016722;28;66718;-41
2022/10/01 04:36:48;;;;;;;26.50;10.75;;;;;;;30.61;76.49;100790.56;4999134;28;70249;-38
2022/10/01 04:39:20;;;;;;;13.55;9.98;;;;;;;30.69;76.49;100793.00;5008185;28;66841;-38
2022/10/01 04:41:53;;;;;;;13.90;9.15;;;;;;;30.68;76.29;100785.94;5009157;28;69821;-40
2022/10/01 04:44:25;;;;;;;12.23;7.85;;;;;;;30.76;75.38;100792.09;5007424;28;67106;-40
2022/10/01 04:46:57;;;;;;;19.02;7.50;;;;;;;30.71;75.77;100793.63;5013778;28;70113;-39
2022/10/01 04:49:31;;;;;;;8.50;7.07;;;;;;;30.75;75.65;100790.47;5009696;28;66542;-40
2022/10/01 04:52:04;;;;;;;13.43;7.50;;;;;;;30.70;76.40;100778.44;5011553;28;70500;-39
2022/10/01 04:54:37;;;;;;;10.88;7.10;;;;;;;30.71;76.40;100774.66;5014921;28;66976;-41
2022/10/01 04:57:11;;;;;;;11.35;7.70;;;;;;;30.90;74.80;100778.28;4987396;28;70574;-41
2022/10/01 04:59:43;;;;;;;17.35;7.20;;;;;;;31.03;74.63;100781.91;5017281;28;66994;-40
2022/10/01 05:02:16;;;;;;;12.65;6.65;;;;;;;31.06;74.37;100771.44;5021507;28;70817;-41
2022/10/01 05:04:49;;;;;;;12.10;6.47;;;;;;;31.15;74.22;100769.28;5023692;28;66957;-41
2022/10/01 05:07:22;;;;;;;7.53;6.55;;;;;;;31.19;74.31;100765.06;5026397;28;70562;-40
2022/10/01 05:09:54;;;;;;;9.77;6.57;;;;;;;31.24;73.57;100762.50;5019917;28;66993;-40
2022/10/01 05:12:28;;;;;;;9.27;6.20;;;;;;;31.33;73.76;100771.16;5022750;28;70547;-44
2022/10/01 05:15:02;;;;;;;11.05;5.38;;;;;;;31.35;73.62;100758.22;5019932;28;66837;-41
2022/10/01 05:17:34;;;;;;;7.45;4.95;;;;;;;31.38;73.14;100746.94;5018554;28;70737;-41
2022/10/01 05:20:10;;;;;;;6.20;5.25;;;;;;;31.32;73.14;100720.72;5015868;28;66785;-40
2022/10/01 05:22:44;;;;;;;8.93;4.97;;;;;;;31.38;73.25;100714.41;5015488;28;69880;-40
2022/10/01 05:25:17;;;;;;;6.05;4.82;;;;;;;30.94;73.41;100654.06;5025199;28;66233;-40
2022/10/01 05:27:50;;;;;;;5.32;4.82;;;;;;;31.16;73.65;100706.72;5004096;28;71077;-39
2022/10/01 05:30:25;;;;;;;5.28;4.65;;;;;;;31.13;72.39;100718.00;5010419;28;67005;-40
2022/10/01 05:33:00;;;;;;;5.00;4.60;;;;;;;31.03;73.16;100712.28;5016886;28;70406;-39
2022/10/01 05:35:32;;;;;;;5.13;4.07;;;;;;;31.00;71.87;100707.31;5014758;28;66412;-39
2022/10/01 05:38:05;;;;;;;8.75;4.28;;;;;;;30.91;71.00;100703.25;5016275;28;70462;-40
2022/10/01 05:40:37;;;;;;;4.03;3.65;;;;;;;30.82;70.32;100694.59;5017518;28;66858;-41
2022/10/01 05:43:11;;;;;;;4.15;3.75;;;;;;;30.76;68.82;100689.22;5015020;28;70560;-40
2022/10/01 05:45:45;;;;;;;6.50;3.70;;;;;;;30.72;67.81;100686.94;5007637;28;43057;-40
2022/10/01 05:48:18;;;;;;;3.53;3.22;;;;;;;30.65;66.66;100680.78;5014985;28;68922;-41
2022/10/01 05:50:50;;;;;;;3.53;3.25;;;;;;;30.60;66.89;100668.97;5007119;28;66284;-41
2022/10/01 05:53:23;;;;;;;3.08;2.88;;;;;;;30.64;65.85;100679.13;5011945;28;70335;-40
2022/10/01 05:55:55;;;;;;;10.02;2.88;;;;;;;30.56;65.10;100663.16;5009479;28;67293;-40
2022/10/01 05:58:28;;;;;;;21.20;2.63;;;;;;;30.56;64.38;100660.44;5008023;28;70132;-40
2022/10/01 06:01:01;;;;;;;2.72;2.53;;;;;;;30.54;64.26;100643.63;5012678;28;66701;-39
2022/10/01 06:03:34;;;;;;;11.82;2.72;;;;;;;30.53;64.71;100635.72;5015518;28;70642;-40
2022/10/01 06:06:07;;;;;;;10.02;2.70;;;;;;;30.53;64.84;100638.44;5014574;28;66300;-39
2022/10/01 06:08:39;;;;;;;3.80;2.88;;;;;;;30.52;64.72;100628.66;5010019;28;71622;-38
2022/10/01 06:11:12;;;;;;;11.75;3.40;;;;;;;30.46;63.37;100624.97;5005407;28;65959;-40
2022/10/01 06:13:45;;;;;;;10.50;3.15;;;;;;;30.50;63.78;100620.75;5015866;28;70880;-40
2022/10/01 06:16:19;;;;;;;4.65;2.92;;;;;;;30.50;64.67;100609.94;5007289;28;67062;-40
2022/10/01 06:18:56;;;;;;;3.50;3.00;;;;;;;30.49;64.48;100595.56;5008284;28;70893;-39
2022/10/01 06:21:30;;;;;;;3.80;2.92;;;;;;;30.48;62.95;100595.81;5008394;28;66890;-38
2022/10/01 06:24:03;;;;;;;11.55;3.17;;;;;;;30.48;62.33;100585.00;5016386;28;71121;-39
2022/10/01 06:26:36;;;;;;;9.52;3.03;;;;;;;30.45;62.03;100586.25;5011401;28;66898;-39
2022/10/01 06:29:09;;;;;;;3.53;2.30;;;;;;;30.46;61.88;100587.09;5017798;28;71062;-40
2022/10/01 06:31:42;;;;;;;4.93;2.63;;;;;;;30.36;60.98;100565.94;5013885;28;66735;-40
2022/10/01 06:34:14;;;;;;;5.03;2.30;;;;;;;30.49;60.50;100575.81;5022482;28;70880;-40
2022/10/01 06:36:46;;;;;;;2.53;2.22;;;;;;;30.50;59.73;100572.03;5022621;28;67048;-39
2022/10/01 06:39:19;;;;;;;3.60;2.60;;;;;;;30.53;58.88;100563.47;5021909;28;70030;-39
2022/10/01 06:41:52;;;;;;;4.95;2.42;;;;;;;30.48;58.83;100555.22;5022681;28;66943;-39
2022/10/01 06:44:24;;;;;;;6.65;2.40;;;;;;;30.58;57.82;100571.75;5017991;28;70243;-39
2022/10/01 06:46:56;;;;;;;2.97;2.67;;;;;;;30.43;57.29;100544.22;5012184;28;66629;-40
2022/10/01 06:49:29;;;;;;;3.53;2.35;;;;;;;30.59;57.09;100568.00;5007494;28;70924;-39
2022/10/01 06:54:52;;;;;;;2.53;2.30;;;;;;;30.57;55.55;100563.84;5010861;28;71107;-39
2022/10/01 06:57:25;;;;;;;4.32;2.47;;;;;;;30.66;57.15;100571.44;5021218;28;66860;-40
2022/10/01 06:59:58;;;;;;;1.83;1.55;;;;;;;30.58;55.32;100570.91;5022135;28;70904;-40
2022/10/01 07:02:31;;;;;;;2.40;2.20;;;;;;;30.63;55.72;100576.47;5022425;28;66916;-39
2022/10/01 07:05:04;;;;;;;2.72;1.90;;;;;;;30.60;56.27;100564.22;5021458;28;70859;-38
2022/10/01 07:07:38;;;;;;;2.15;1.98;;;;;;;30.13;53.99;100480.00;5016138;28;66687;-39
2022/10/01 07:10:11;;;;;;;3.28;2.10;;;;;;;30.65;54.56;100558.16;5021267;28;70843;-39
2022/10/01 07:12:44;;;;;;;3.40;2.40;;;;;;;30.56;53.77;100552.19;5012409;28;66868;-39
2022/10/01 07:15:20;;;;;;;1.90;1.38;;;;;;;30.65;53.23;100548.13;5015377;28;70497;-40
2022/10/01 07:17:52;;;;;;;1.95;1.73;;;;;;;30.67;53.28;100542.47;5017229;28;65887;-40
2022/10/01 07:20:25;;;;;;;2.92;1.80;;;;;;;30.68;53.57;100536.84;5001818;28;70407;-38
2022/10/01 07:22:58;;;;;;;2.08;1.15;;;;;;;30.14;52.71;100435.66;5017965;28;67406;-38
2022/10/01 07:25:31;;;;;;;3.60;1.63;;;;;;;30.75;52.72;100519.69;5016362;28;71336;-39
2022/10/01 07:28:05;;;;;;;4.40;1.63;;;;;;;30.42;54.13;100450.53;5010009;28;67144;-40
2022/10/01 07:30:39;;;;;;;3.22;1.77;;;;;;;30.80;52.22;100500.91;5002938;28;70852;-39
2022/10/01 07:33:12;;;;;;;1.88;1.60;;;;;;;30.83;52.03;100516.69;5012205;28;67031;-39
2022/10/01 07:35:46;;;;;;;2.92;1.98;;;;;;;30.91;52.27;100500.94;5021565;28;70794;-40
2022/10/01 07:38:19;;;;;;;3.05;1.90;;;;;;;30.85;51.15;100498.34;5012055;28;67123;-39
2022/10/01 07:40:53;;;;;;;3.55;1.80;;;;;;;30.84;50.89;100486.69;5010096;28;70867;-39
2022/10/01 07:43:25;;;;;;;1.40;1.27;;;;;;;30.93;50.60;100484.50;5019055;28;66822;-39
2022/10/01 07:46:00;;;;;;;3.08;1.50;;;;;;;30.96;50.86;100477.78;5017028;28;70570;-39
2022/10/01 07:48:33;;;;;;;2.33;1.58;;;;;;;31.03;51.54;100483.91;5021085;28;66930;-39
2022/10/01 07:51:06;;;;;;;5.32;1.67;;;;;;;31.07;50.52;100480.53;5014027;28;71133;-39
2022/10/01 07:53:38;;;;;;;2.78;1.42;;;;;;;31.05;50.59;100479.09;5002011;28;66104;-39
2022/10/01 07:56:11;;;;;;;3.97;1.70;;;;;;;30.97;50.19;100458.56;5018746;28;70577;-39
2022/10/01 07:58:43;;;;;;;2.25;1.58;;;;;;;31.11;49.30;100481.69;5019062;28;66223;-39
2022/10/01 08:01:16;;;;;;;2.80;1.75;;;;;;;31.15;49.36;100485.59;5001612;28;70520;-40
2022/10/01 08:03:50;;;;;;;5.15;1.70;;;;;;;31.16;48.82;100497.28;5020055;28;66848;-40
2022/10/01 08:06:22;;;;;;;2.15;1.42;;;;;;;31.16;48.76;100495.38;5020190;28;70526;-40
2022/10/01 08:08:55;;;;;;;3.15;1.88;;;;;;;31.19;48.57;100498.69;5021700;28;66027;-39
2022/10/01 08:11:28;;;;;;;1.98;1.42;;;;;;;31.13;48.38;100485.00;5021211;28;70282;-39
2022/10/01 08:14:03;;;;;;;2.90;1.27;;;;;;;31.24;48.56;100496.13;5019972;28;66772;-40
2022/10/01 08:16:38;;;;;;;2.50;1.58;;;;;;;31.23;48.02;100489.03;5026865;28;70823;-41
2022/10/01 08:19:11;;;;;;;5.05;1.73;;;;;;;31.24;47.48;100479.84;5017170;28;66971;-40
2022/10/01 08:21:44;;;;;;;3.42;1.60;;;;;;;31.23;48.28;100472.78;4994445;28;70321;-39
2022/10/01 08:24:17;;;;;;;5.20;1.48;;;;;;;31.28;47.96;100478.31;5019507;28;66661;-40
2022/10/01 08:26:54;;;;;;;1.90;1.42;;;;;;;31.31;47.68;100480.56;5016540;28;70438;-40
2022/10/01 08:29:27;;;;;;;3.80;1.90;;;;;;;31.28;47.33;100486.44;5001879;28;66891;-40
2022/10/01 08:31:59;;;;;;;5.50;1.27;;;;;;;31.27;47.38;100488.34;5016962;28;70867;-39
2022/10/01 08:34:32;;;;;;;5.03;1.90;;;;;;;31.27;47.40;100495.66;5001269;28;66786;-40
2022/10/01 08:37:04;;;;;;;6.15;1.30;;;;;;;31.29;47.94;100493.53;5017204;28;70872;-39
2022/10/01 08:39:37;;;;;;;4.90;1.50;;;;;;;31.29;47.18;100493.53;5014409;28;65126;-40
2022/10/01 08:42:27;;;;;;;2.15;1.75;;;;;;;31.27;47.26;100515.44;5014146;28;70307;-39
2022/10/01 08:45:05;;;;;;;1.77;1.40;;;;;;;31.21;47.11;100502.00;5010085;28;67116;-41
2022/10/01 08:47:48;;;;;;;1.60;1.50;;;;;;;31.28;47.30;100540.66;5015658;28;70887;-39
2022/10/01 08:50:49;;;;;;;2.50;1.52;;;;;;;31.23;48.04;100559.47;5013033;28;67066;-38
2022/10/01 08:53:50;;;;;;;3.10;1.55;;;;;;;31.23;47.52;100545.94;5014088;28;70838;-39
2022/10/01 08:56:30;;;;;;;5.05;1.67;;;;;;;31.21;47.63;100539.94;5011953;28;66423;-39
2022/10/01 08:59:12;;;;;;;3.58;1.58;;;;;;;30.89;48.40;100489.50;5009868;28;71370;-40
2022/10/01 09:01:44;;;;;;;7.45;1.88;;;;;;;31.28;50.08;100551.50;5011268;28;66635;-38
2022/10/01 09:04:17;;;;;;;5.53;1.70;;;;;;;31.38;50.77;100568.88;5013640;28;70846;-38
2022/10/01 09:06:59;;;;;;;2.00;1.48;;;;;;;31.50;51.69;100570.78;5015426;28;66300;-38
2022/10/01 09:09:58;;;;;;;4.00;1.70;;;;;;;31.46;53.96;100581.28;4999963;28;70688;-39
2022/10/01 09:12:46;;;;;;;10.77;2.28;;;;;;;31.58;58.07;100584.00;5018922;28;67005;-40
2022/10/01 09:16:10;;;;;;;4.57;2.05;;;;;;;31.46;60.88;100570.44;5009572;28;70946;-39
2022/10/01 09:18:55;;;;;;;9.30;2.80;;;;;;;31.76;61.83;100602.06;5004816;28;66983;-39
2022/10/01 09:21:36;;;;;;;15.43;2.53;;;;;;;31.79;62.33;100624.16;5018763;28;70920;-39
2022/10/01 09:24:15;;;;;;;10.97;2.20;;;;;;;31.87;62.04;100614.84;5017756;28;67299;-39
2022/10/01 09:26:48;;;;;;;10.60;2.53;;;;;;;31.85;63.27;100606.13;5012494;28;69847;-39
2022/10/01 09:29:34;;;;;;;7.75;1.90;;;;;;;31.73;63.47;100591.69;5013938;28;66672;-39
2022/10/01 09:32:07;;;;;;;6.90;2.20;;;;;;;31.90;63.31;100618.97;5017706;28;70494;-39
2022/10/01 09:34:43;;;;;;;8.45;2.28;;;;;;;31.34;64.47;100534.28;5015993;28;67438;-38
2022/10/01 09:37:27;;;;;;;11.60;2.72;;;;;;;31.91;65.17;100626.06;5009761;28;70724;-39
2022/10/01 09:40:25;;;;;;;9.40;2.45;;;;;;;31.91;65.29;100620.63;5012436;28;66899;-38
2022/10/01 09:42:57;;;;;;;6.57;2.47;;;;;;;31.90;66.01;100624.41;5008530;28;70127;-39
2022/10/01 09:45:30;;;;;;;4.85;2.58;;;;;;;31.94;65.85;100617.50;5010815;28;66629;-39
2022/10/01 09:48:28;;;;;;;8.52;2.38;;;;;;;31.84;67.52;100620.72;5013959;28;70162;-39
2022/10/01 09:51:21;;;;;;;7.82;2.83;;;;;;;31.89;68.73;100617.31;5007668;28;66503;-40
2022/10/01 09:54:02;;;;;;;8.30;3.40;;;;;;;31.93;68.87;100615.81;5023773;28;70398;-40
2022/10/01 09:56:42;;;;;;;4.60;3.22;;;;;;;31.47;69.72;100542.25;5018708;28;66940;-41
2022/10/01 09:59:23;;;;;;;9.73;3.65;;;;;;;31.63;69.20;100570.59;5019968;28;71006;-41
2022/10/01 10:02:00;;;;;;;7.55;3.30;;;;;;;31.10;67.98;100477.34;5029615;28;67254;-41
2022/10/01 10:04:32;;;;;;;9.88;3.88;;;;;;;31.93;70.28;100616.66;5004363;28;70782;-40
2022/10/01 10:07:05;;;;;;;9.07;3.13;;;;;;;31.80;71.00;100608.72;5004588;28;66786;-41
2022/10/01 10:09:38;;;;;;;8.50;3.10;;;;;;;31.87;71.15;100617.53;5011847;28;69679;-42
2022/10/01 10:12:27;;;;;;;6.53;3.42;;;;;;;31.72;71.33;100596.31;5005897;28;66878;-41
2022/10/01 10:15:15;;;;;;;8.02;3.50;;;;;;;31.40;71.67;100541.56;5007158;28;70940;-40
2022/10/01 10:17:50;;;;;;;10.68;3.58;;;;;;;31.75;72.23;100605.88;5010836;28;67010;-40
2022/10/01 10:20:38;;;;;;;8.82;4.97;;;;;;;31.83;72.36;100627.22;5017230;28;70099;-40
2022/10/01 10:23:22;;;;;;;8.38;6.10;;;;;;;31.69;73.04;100601.38;5012834;28;66978;-40
2022/10/01 10:26:04;;;;;;;9.80;6.25;;;;;;;31.91;72.65;100616.06;5009448;28;70848;-40
2022/10/01 10:28:45;;;;;;;11.75;6.15;;;;;;;31.89;72.66;100618.16;5008239;28;66401;-39
2022/10/01 10:31:23;;;;;;;7.45;5.15;;;;;;;31.89;73.04;100626.28;5014628;28;69412;-40
2022/10/01 10:34:07;;;;;;;13.43;5.85;;;;;;;31.86;73.34;100628.66;5007892;28;66495;-39
2022/10/01 10:36:41;;;;;;;9.43;4.85;;;;;;;31.84;73.62;100634.28;5013607;28;70891;-42
2022/10/01 10:39:24;;;;;;;14.15;4.28;;;;;;;31.70;73.72;100622.00;5007333;28;67061;-40
2022/10/01 10:41:59;;;;;;;9.13;5.05;;;;;;;31.86;73.69;100651.16;5008936;28;70013;-41
2022/10/01 10:44:36;;;;;;;12.82;4.03;;;;;;;32.00;71.30;100652.63;4995112;28;66943;-40
2022/10/01 10:47:13;;;;;;;10.52;4.95;;;;;;;32.09;70.92;100655.00;5009688;28;70530;-41
2022/10/01 10:49:57;;;;;;;7.20;3.90;;;;;;;31.72;70.86;100600.91;5004048;28;67077;-40
2022/10/01 10:52:35;;;;;;;9.07;4.05;;;;;;;32.17;70.20;100670.94;4995539;28;70833;-40
2022/10/01 10:55:29;;;;;;;8.13;4.70;;;;;;;32.10;70.29;100672.97;5013526;28;66561;-40
2022/10/01 10:58:14;;;;;;;6.28;4.22;;;;;;;31.64;70.00;100607.47;5018076;28;70517;-40
2022/10/01 11:00:51;;;;;;;5.70;4.00;;;;;;;31.59;69.09;100591.94;5018571;28;66186;-40
2022/10/01 11:03:28;;;;;;;13.18;4.75;;;;;;;31.67;69.04;100608.91;5017898;28;70927;-40
2022/10/01 11:06:11;;;;;;;7.90;3.85;;;;;;;32.09;69.88;100699.25;5018291;28;67578;-40
2022/10/01 11:08:55;;;;;;;4.82;3.83;;;;;;;31.67;68.77;100614.34;5016786;28;69948;-39
2022/10/01 11:12:04;;;;;;;7.93;4.25;;;;;;;32.01;69.66;100692.28;5018261;28;67071;-45
2022/10/01 11:15:06;;;;;;;7.65;3.55;;;;;;;31.44;70.65;100626.75;5017235;28;70446;-41
2022/10/01 11:18:03;;;;;;;3.80;3.50;;;;;;;31.13;69.98;100642.16;5014802;28;66877;-39
2022/10/01 11:20:49;;;;;;;4.65;3.50;;;;;;;31.39;69.60;100700.63;5018251;28;70907;-40
2022/10/01 11:23:56;;;;;;;3.40;3.10;;;;;;;31.09;68.72;100695.16;5012775;28;66351;-39
2022/10/01 11:26:40;;;;;;;9.32;3.80;;;;;;;31.03;67.69;100712.28;4985034;28;70134;-39
2022/10/01 11:29:15;;;;;;;9.75;3.63;;;;;;;30.94;67.18;100724.47;5010067;28;66886;-39
2022/10/01 11:32:01;;;;;;;6.30;3.53;;;;;;;30.85;66.17;100737.47;5012594;28;69863;-39
2022/10/01 11:35:05;;;;;;;3.58;3.28;;;;;;;30.76;66.85;100754.19;5007980;28;66650;-40
2022/10/01 11:37:38;;;;;;;7.63;3.00;;;;;;;30.74;66.28;100757.16;5009817;28;70777;-42
2022/10/01 11:40:20;;;;;;;8.20;3.58;;;;;;;30.72;65.85;100762.75;5013873;28;66858;-38
2022/10/01 11:42:58;;;;;;;;;;;;;;;30.43;66.56;100760.75;5011969;28;70725;-40
2022/10/01 11:45:39;;;;;;;8.82;3.15;;;;;;;30.28;64.86;100699.66;5010283;28;66162;-40
2022/10/01 11:48:24;;;;;;;10.75;3.45;;;;;;;30.47;64.31;100729.47;5008763;28;70747;-42
2022/10/01 11:51:06;;;;;;;5.18;3.50;;;;;;;30.31;65.00;100682.13;5013712;28;66619;-42
2022/10/01 11:54:05;;;;;;;22.58;3.70;;;;;;;30.12;64.96;100667.72;5010237;28;70133;-39
2022/10/01 11:59:59;;;;;;;9.43;4.85;;;;;;;30.69;66.93;100749.69;5009839;28;70231;-40
2022/10/01 12:02:53;;;;;;;5.35;4.85;;;;;;;30.54;67.70;100711.31;5006128;28;66558;-37
2022/10/01 12:05:31;;;;;;;5.50;5.00;;;;;;;30.78;66.46;100754.81;5012301;28;70897;-39
2022/10/01 12:08:12;;;;;;;6.55;5.32;;;;;;;30.58;66.32;100717.91;5011644;28;66786;-39
2022/10/01 12:11:04;;;;;;;9.90;5.10;;;;;;;30.36;67.13;100689.59;5021004;28;70764;-39
2022/10/01 12:13:54;;;;;;;5.43;4.93;;;;;;;30.26;67.53;100688.22;5010306;28;66339;-39